createdAt,value
2019-05-03T00:00:43.145Z,10.20
2019-05-03T00:03:12.714Z,10.10
2019-05-03T00:05:47.677Z,10.10
2019-05-03T00:08:17.011Z,10.20
2019-05-03T00:10:46.398Z,10.10
2019-05-03T00:13:15.850Z,10.00
2019-05-03T00:16:03.339Z,9.90
2019-05-03T00:18:32.895Z,10.00
2019-05-03T00:21:02.295Z,9.80
2019-05-03T00:23:32.434Z,9.90
2019-05-03T00:26:02.773Z,9.80
2019-05-03T00:28:32.251Z,9.90
2019-05-03T00:31:01.993Z,9.90
2019-05-03T00:33:31.934Z,9.90
2019-05-03T00:36:22.323Z,9.90
2019-05-03T00:38:54.409Z,10.00
2019-05-03T00:41:23.783Z,9.80
2019-05-03T00:43:53.136Z,9.90
2019-05-03T00:46:22.466Z,9.80
2019-05-03T00:48:52.466Z,9.80
2019-05-03T00:51:22.662Z,9.70
2019-05-03T00:53:53.059Z,9.90
2019-05-03T00:56:22.593Z,9.70
2019-05-03T00:58:58.309Z,9.80
2019-05-03T01:01:27.630Z,9.80
2019-05-03T01:03:56.998Z,9.60
2019-05-03T01:06:26.403Z,9.80
2019-05-03T01:08:56.175Z,9.80
2019-05-03T01:11:25.574Z,9.60
2019-05-03T01:13:54.875Z,9.70
2019-05-03T01:16:25.120Z,9.60
2019-05-03T01:18:54.423Z,9.60
2019-05-03T01:21:23.752Z,9.50
2019-05-03T01:23:53.081Z,9.40
2019-05-03T01:26:22.944Z,9.30
2019-05-03T01:28:52.580Z,9.20
2019-05-03T01:31:22.840Z,9.20
2019-05-03T01:33:52.605Z,9.20
2019-05-03T01:36:22.790Z,9.20
2019-05-03T01:38:52.893Z,9.20
2019-05-03T01:41:22.551Z,9.00
2019-05-03T01:43:52.578Z,9.20
2019-05-03T01:46:22.820Z,9.20
2019-05-03T01:49:04.182Z,9.30
2019-05-03T01:51:43.771Z,9.30
2019-05-03T01:54:12.856Z,9.10
2019-05-03T01:56:55.332Z,9.00
2019-05-03T01:59:12.856Z,9.00
2019-05-03T02:01:49.323Z,8.80
2019-05-03T02:04:41.740Z,8.90
2019-05-03T02:07:11.757Z,9.00
2019-05-03T02:09:41.723Z,9.10
2019-05-03T02:12:12.752Z,9.00
2019-05-03T02:14:42.227Z,9.00
2019-05-03T02:17:12.423Z,9.00
2019-05-03T02:19:42.244Z,8.90
2019-05-03T02:22:12.114Z,9.00
2019-05-03T02:24:42.271Z,9.10
2019-05-03T02:27:12.786Z,8.80
2019-05-03T02:29:42.078Z,8.80
2019-05-03T02:32:13.311Z,8.60
2019-05-03T02:34:43.983Z,8.70
2019-05-03T02:37:13.814Z,8.70
2019-05-03T02:39:43.266Z,8.80
2019-05-03T02:42:12.371Z,8.70
2019-05-03T02:44:41.601Z,8.50
2019-05-03T02:47:28.711Z,8.40
2019-05-03T02:50:01.828Z,8.50
2019-05-03T02:52:36.437Z,8.60
2019-05-03T02:55:07.226Z,8.50
2019-05-03T02:57:36.713Z,8.50
2019-05-03T03:00:08.463Z,8.40
2019-05-03T03:02:38.229Z,8.40
2019-05-03T03:05:07.607Z,8.30
2019-05-03T03:07:37.962Z,8.40
2019-05-03T03:10:07.873Z,8.40
2019-05-03T03:12:39.541Z,8.40
2019-05-03T03:15:09.236Z,8.30
2019-05-03T03:17:41.478Z,8.30
2019-05-03T03:20:11.078Z,8.20
2019-05-03T03:22:45.594Z,8.20
2019-05-03T03:25:19.439Z,8.20
2019-05-03T03:27:50.981Z,8.10
2019-05-03T03:30:48.684Z,8.00
2019-05-03T03:33:17.856Z,8.00
2019-05-03T03:35:48.814Z,8.10
2019-05-03T03:38:19.268Z,8.10
2019-05-03T03:40:49.575Z,8.10
2019-05-03T03:43:21.777Z,8.00
2019-05-03T03:45:51.530Z,8.00
2019-05-03T03:48:21.025Z,8.10
2019-05-03T03:50:55.903Z,7.90
2019-05-03T03:53:26.366Z,8.10
2019-05-03T03:55:57.052Z,8.00
2019-05-03T03:58:27.134Z,7.80
2019-05-03T04:00:56.506Z,7.80
2019-05-03T04:03:26.244Z,7.80
2019-05-03T04:05:56.001Z,7.80
2019-05-03T04:08:25.879Z,7.70
2019-05-03T04:10:55.962Z,7.80
2019-05-03T04:13:25.947Z,8.00
2019-05-03T04:16:05.688Z,7.80
2019-05-03T04:18:48.438Z,7.70
2019-05-03T04:21:17.623Z,7.60
2019-05-03T04:23:46.690Z,7.60
2019-05-03T04:26:16.426Z,7.60
2019-05-03T04:28:45.668Z,7.60
2019-05-03T04:31:15.371Z,7.70
2019-05-03T04:33:45.172Z,7.80
2019-05-03T04:36:15.901Z,7.80
2019-05-03T04:38:45.537Z,7.80
2019-05-03T04:41:15.909Z,7.80
2019-05-03T04:43:45.994Z,7.70
2019-05-03T04:46:25.830Z,7.60
2019-05-03T04:48:56.175Z,7.60
2019-05-03T04:51:26.049Z,7.60
2019-05-03T04:54:16.107Z,7.80
2019-05-03T04:56:46.489Z,7.70
2019-05-03T04:59:16.143Z,8.00
2019-05-03T05:01:46.212Z,7.80
2019-05-03T05:04:16.075Z,7.80
2019-05-03T05:06:45.486Z,7.70
2019-05-03T05:09:15.575Z,7.70
2019-05-03T05:11:45.780Z,7.60
2019-05-03T05:14:15.487Z,7.50
2019-05-03T05:16:46.574Z,7.50
2019-05-03T05:19:19.000Z,7.70
2019-05-03T05:21:51.804Z,7.60
2019-05-03T05:24:20.912Z,7.60
2019-05-03T05:26:56.607Z,7.60
2019-05-03T05:29:28.244Z,7.60
2019-05-03T05:31:57.746Z,7.50
2019-05-03T05:34:26.967Z,7.60
2019-05-03T05:36:56.102Z,7.60
2019-05-03T05:39:25.198Z,7.60
2019-05-03T05:41:55.460Z,7.60
2019-05-03T05:44:24.853Z,7.70
2019-05-03T05:47:12.167Z,7.80
2019-05-03T05:49:49.022Z,7.80
2019-05-03T05:52:37.215Z,7.60
2019-05-03T05:55:31.455Z,7.60
2019-05-03T05:58:28.676Z,7.70
2019-05-03T06:01:01.210Z,7.80
2019-05-03T06:03:30.294Z,7.80
2019-05-03T06:06:01.691Z,7.90
2019-05-03T06:08:54.823Z,7.90
2019-05-03T06:11:39.358Z,7.80
2019-05-03T06:14:15.542Z,8.00
2019-05-03T06:16:58.949Z,8.20
2019-05-03T06:19:35.114Z,8.00
2019-05-03T06:22:27.511Z,8.10
2019-05-03T06:25:02.048Z,8.00
2019-05-03T06:27:35.063Z,8.00
2019-05-03T06:30:12.365Z,8.10
2019-05-03T06:32:41.973Z,8.20
2019-05-03T06:35:11.503Z,8.40
2019-05-03T06:37:45.681Z,8.40
2019-05-03T06:40:15.074Z,8.40
2019-05-03T06:42:52.303Z,8.40
2019-05-03T06:45:15.202Z,8.30
